CES5101 ZSSS-ZBAA
Flight info
| Callsign | CES5101 |
|---|---|
| Flight time | 1h 40m |
| Altitude | 34100 |
| Route | SASAN W161 VMB A593 DALIM W157 AVBOX |
| Aircraft | B77W/H-SDE1E2E3FGHIJ2J3J4J5M1RWXY/LB1D1 |
Departure
| Time | 2026-05-04 07:20 |
|---|---|
| Airport | Shanghai Hongqiao International Airport (ZSSS) |
Arrival
| Time | 2026-05-04 09:01 |
|---|---|
| Airport | Beijing Capital International Airport (ZBAA) |
| Time | Latitude | Longitude | Altitude | Speed | Heading |
|---|---|---|---|---|---|
| 2026-05-04 06:16 | 31.19500 | 121.32723 | 21 ft | 0 kts | 177° |
| 2026-05-04 07:04 | 31.19513 | 121.32722 | 21 ft | 2 kts | 177° |
| 2026-05-04 07:04 | 31.19528 | 121.32722 | 21 ft | 1 kts | 177° |
| 2026-05-04 07:04 | 31.19538 | 121.32721 | 21 ft | 2 kts | 171° |
| 2026-05-04 07:04 | 31.19552 | 121.32716 | 21 ft | 2 kts | 146° |
| 2026-05-04 07:05 | 31.19563 | 121.32704 | 21 ft | 2 kts | 126° |
| 2026-05-04 07:05 | 31.19570 | 121.32689 | 21 ft | 2 kts | 107° |
| 2026-05-04 07:05 | 31.19573 | 121.32673 | 21 ft | 0 kts | 88° |
| 2026-05-04 07:05 | 31.19572 | 121.32667 | 21 ft | 0 kts | 86° |
| 2026-05-04 07:12 | 31.19572 | 121.32668 | 21 ft | 0 kts | 86° |
| 2026-05-04 07:13 | 31.19573 | 121.32681 | 21 ft | 2 kts | 88° |
| 2026-05-04 07:13 | 31.19573 | 121.32713 | 21 ft | 5 kts | 88° |
| 2026-05-04 07:13 | 31.19575 | 121.32767 | 21 ft | 9 kts | 88° |
| 2026-05-04 07:14 | 31.19582 | 121.32964 | 21 ft | 8 kts | 87° |
| 2026-05-04 07:15 | 31.19583 | 121.33021 | 21 ft | 5 kts | 104° |
| 2026-05-04 07:15 | 31.19561 | 121.33043 | 21 ft | 4 kts | 149° |
| 2026-05-04 07:15 | 31.19513 | 121.33064 | 21 ft | 9 kts | 167° |
| 2026-05-04 07:15 | 31.19428 | 121.33077 | 21 ft | 14 kts | 178° |
| 2026-05-04 07:16 | 31.19311 | 121.33082 | 21 ft | 18 kts | 177° |
| 2026-05-04 07:16 | 31.19169 | 121.33089 | 21 ft | 22 kts | 178° |
| 2026-05-04 07:16 | 31.19012 | 121.33097 | 21 ft | 21 kts | 177° |
| 2026-05-04 07:16 | 31.18870 | 121.33105 | 21 ft | 19 kts | 177° |
| 2026-05-04 07:17 | 31.18742 | 121.33112 | 21 ft | 17 kts | 177° |
| 2026-05-04 07:17 | 31.18624 | 121.33119 | 21 ft | 16 kts | 177° |
| 2026-05-04 07:17 | 31.18517 | 121.33125 | 21 ft | 14 kts | 178° |
| 2026-05-04 07:17 | 31.18420 | 121.33131 | 21 ft | 13 kts | 177° |
| 2026-05-04 07:18 | 31.18367 | 121.33134 | 21 ft | 4 kts | 165° |
| 2026-05-04 07:18 | 31.18344 | 121.33162 | 21 ft | 5 kts | 113° |
| 2026-05-04 07:18 | 31.18340 | 121.33212 | 21 ft | 6 kts | 88° |
| 2026-05-04 07:18 | 31.18341 | 121.33270 | 21 ft | 7 kts | 86° |
| 2026-05-04 07:19 | 31.18362 | 121.33317 | 21 ft | 6 kts | 40° |
| 2026-05-04 07:19 | 31.18385 | 121.33324 | 21 ft | 0 kts | 358° |
| 2026-05-04 07:19 | 31.18386 | 121.33324 | 21 ft | 2 kts | 357° |
| 2026-05-04 07:19 | 31.18573 | 121.33314 | 21 ft | 68 kts | 357° |
| 2026-05-04 07:20 | 31.19371 | 121.33276 | 21 ft | 158 kts | 354° |
| 2026-05-04 07:20 | 31.20683 | 121.33213 | 386 ft | 208 kts | 358° |
| 2026-05-04 07:20 | 31.22114 | 121.33202 | 1285 ft | 199 kts | 359° |
| 2026-05-04 07:20 | 31.23468 | 121.33154 | 1803 ft | 198 kts | 346° |
| 2026-05-04 07:22 | 31.29286 | 121.23172 | 4810 ft | 232 kts | 300° |
| 2026-05-04 07:22 | 31.30132 | 121.21430 | 4915 ft | 256 kts | 300° |
| 2026-05-04 07:23 | 31.30987 | 121.19666 | 5005 ft | 283 kts | 300° |
| 2026-05-04 07:23 | 31.32027 | 121.17516 | 5061 ft | 324 kts | 300° |
| 2026-05-04 07:23 | 31.33200 | 121.15084 | 5103 ft | 343 kts | 300° |
| 2026-05-04 07:23 | 31.34355 | 121.12685 | 5117 ft | 350 kts | 300° |
| 2026-05-04 07:24 | 31.35506 | 121.09933 | 5220 ft | 384 kts | 292° |
| 2026-05-04 07:24 | 31.36393 | 121.07082 | 5299 ft | 367 kts | 290° |
| 2026-05-04 07:24 | 31.37219 | 121.04336 | 5285 ft | 347 kts | 290° |
| 2026-05-04 07:24 | 31.38002 | 121.01729 | 5292 ft | 328 kts | 290° |
| 2026-05-04 07:25 | 31.38738 | 120.99286 | 5288 ft | 311 kts | 290° |
| 2026-05-04 07:26 | 31.43092 | 120.84896 | 5302 ft | 243 kts | 290° |
| 2026-05-04 07:27 | 31.43658 | 120.83020 | 5319 ft | 254 kts | 290° |
| 2026-05-04 07:27 | 31.44262 | 120.81019 | 6131 ft | 264 kts | 290° |
| 2026-05-04 07:27 | 31.44873 | 120.78993 | 6985 ft | 266 kts | 290° |
| 2026-05-04 07:27 | 31.45491 | 120.76942 | 7829 ft | 271 kts | 291° |
| 2026-05-04 07:28 | 31.46094 | 120.74934 | 9004 ft | 265 kts | 292° |
| 2026-05-04 07:28 | 31.46696 | 120.72935 | 9950 ft | 267 kts | 292° |
| 2026-05-04 07:28 | 31.47330 | 120.70833 | 10630 ft | 280 kts | 292° |
| 2026-05-04 07:28 | 31.47988 | 120.68649 | 11177 ft | 297 kts | 291° |
| 2026-05-04 07:29 | 31.48692 | 120.66304 | 11771 ft | 313 kts | 291° |
| 2026-05-04 07:29 | 31.49438 | 120.63818 | 12362 ft | 330 kts | 291° |
| 2026-05-04 07:29 | 31.50207 | 120.61252 | 12975 ft | 345 kts | 291° |
| 2026-05-04 07:29 | 31.51014 | 120.58557 | 13596 ft | 359 kts | 290° |
| 2026-05-04 07:30 | 31.51852 | 120.55754 | 14421 ft | 368 kts | 290° |
| 2026-05-04 07:30 | 31.52695 | 120.52934 | 15371 ft | 373 kts | 290° |
| 2026-05-04 07:30 | 31.53545 | 120.50085 | 16345 ft | 376 kts | 289° |
| 2026-05-04 07:30 | 31.54414 | 120.47172 | 17286 ft | 380 kts | 289° |
| 2026-05-04 07:31 | 31.55286 | 120.44249 | 18163 ft | 384 kts | 289° |
| 2026-05-04 07:31 | 31.56164 | 120.41301 | 19072 ft | 388 kts | 289° |
| 2026-05-04 07:33 | 31.68372 | 120.24019 | 24666 ft | 427 kts | 319° |
| 2026-05-04 07:33 | 31.70815 | 120.22018 | 25353 ft | 431 kts | 318° |
| 2026-05-04 07:33 | 31.73292 | 120.19979 | 26002 ft | 436 kts | 317° |
| 2026-05-04 07:33 | 31.75768 | 120.17920 | 26663 ft | 439 kts | 317° |
| 2026-05-04 07:34 | 31.78240 | 120.15816 | 27285 ft | 443 kts | 316° |
| 2026-05-04 07:34 | 31.80745 | 120.13677 | 27956 ft | 447 kts | 315° |
| 2026-05-04 07:34 | 31.83249 | 120.11536 | 28602 ft | 449 kts | 315° |
| 2026-05-04 07:34 | 31.85774 | 120.09374 | 29233 ft | 452 kts | 314° |
| 2026-05-04 07:35 | 31.88304 | 120.07208 | 29944 ft | 453 kts | 314° |
| 2026-05-04 07:35 | 31.90854 | 120.05025 | 30761 ft | 451 kts | 314° |
| 2026-05-04 07:35 | 31.93374 | 120.02866 | 31637 ft | 447 kts | 314° |
| 2026-05-04 07:35 | 31.95846 | 120.00748 | 32489 ft | 442 kts | 313° |
| 2026-05-04 07:36 | 31.98359 | 119.98589 | 33151 ft | 440 kts | 313° |
| 2026-05-04 07:36 | 32.00834 | 119.96459 | 33682 ft | 441 kts | 313° |
| 2026-05-04 07:38 | 32.18203 | 119.81618 | 34145 ft | 439 kts | 315° |
| 2026-05-04 07:38 | 32.20664 | 119.79517 | 34144 ft | 438 kts | 315° |
| 2026-05-04 07:38 | 32.25589 | 119.75307 | 34141 ft | 437 kts | 315° |
| 2026-05-04 07:39 | 32.30542 | 119.71088 | 34141 ft | 440 kts | 315° |
| 2026-05-04 07:39 | 32.35487 | 119.66872 | 34141 ft | 439 kts | 315° |
| 2026-05-04 07:40 | 32.40432 | 119.62649 | 34130 ft | 441 kts | 315° |
| 2026-05-04 07:40 | 32.45415 | 119.58388 | 34141 ft | 440 kts | 315° |
| 2026-05-04 07:41 | 32.50367 | 119.54127 | 34134 ft | 441 kts | 315° |
| 2026-05-04 07:41 | 32.55332 | 119.49837 | 34137 ft | 439 kts | 315° |
| 2026-05-04 07:42 | 32.60269 | 119.45564 | 34132 ft | 442 kts | 316° |
| 2026-05-04 07:42 | 32.65221 | 119.41274 | 34147 ft | 440 kts | 316° |
| 2026-05-04 07:43 | 32.70211 | 119.36941 | 34134 ft | 452 kts | 316° |
| 2026-05-04 07:43 | 32.75279 | 119.32539 | 34150 ft | 452 kts | 316° |
| 2026-05-04 07:44 | 32.80343 | 119.28136 | 34150 ft | 452 kts | 316° |
| 2026-05-04 07:44 | 32.85421 | 119.23713 | 34145 ft | 453 kts | 316° |
| 2026-05-04 07:45 | 32.90498 | 119.19282 | 34146 ft | 457 kts | 317° |
| 2026-05-04 07:45 | 32.95727 | 119.14715 | 34145 ft | 476 kts | 317° |
| 2026-05-04 07:46 | 33.01143 | 119.10059 | 34142 ft | 478 kts | 317° |
| 2026-05-04 07:46 | 33.06517 | 119.05433 | 34140 ft | 479 kts | 318° |
| 2026-05-04 07:47 | 33.11897 | 119.00792 | 34137 ft | 477 kts | 318° |
| 2026-05-04 07:49 | 33.33320 | 118.82175 | 34129 ft | 477 kts | 319° |
| 2026-05-04 07:49 | 33.38717 | 118.77500 | 34129 ft | 479 kts | 319° |
| 2026-05-04 07:50 | 33.44098 | 118.72833 | 34124 ft | 478 kts | 319° |
| 2026-05-04 07:50 | 33.49486 | 118.68156 | 34122 ft | 478 kts | 319° |
| 2026-05-04 07:51 | 33.54859 | 118.63501 | 34124 ft | 476 kts | 320° |
| 2026-05-04 07:51 | 33.60234 | 118.58836 | 34126 ft | 478 kts | 320° |
| 2026-05-04 07:52 | 33.65585 | 118.54183 | 34118 ft | 477 kts | 320° |
| 2026-05-04 07:52 | 33.70953 | 118.49508 | 34116 ft | 477 kts | 320° |
| 2026-05-04 07:54 | 33.92377 | 118.30774 | 34166 ft | 474 kts | 320° |
| 2026-05-04 07:55 | 33.97704 | 118.26097 | 34126 ft | 474 kts | 321° |
| 2026-05-04 07:55 | 34.03058 | 118.21436 | 34126 ft | 476 kts | 321° |
| 2026-05-04 07:56 | 34.08434 | 118.16754 | 34129 ft | 476 kts | 321° |
| 2026-05-04 07:56 | 34.13820 | 118.12064 | 34096 ft | 475 kts | 321° |
| 2026-05-04 07:57 | 34.19161 | 118.07409 | 34129 ft | 477 kts | 321° |
| 2026-05-04 07:57 | 34.24511 | 118.02737 | 34116 ft | 477 kts | 321° |
| 2026-05-04 07:58 | 34.30400 | 117.98966 | 34112 ft | 485 kts | 337° |
| 2026-05-04 07:58 | 34.36859 | 117.96596 | 34125 ft | 486 kts | 340° |
| 2026-05-04 07:59 | 34.43366 | 117.94282 | 34118 ft | 487 kts | 340° |
| 2026-05-04 07:59 | 34.49850 | 117.91970 | 34107 ft | 484 kts | 340° |
| 2026-05-04 08:00 | 34.56345 | 117.89645 | 34116 ft | 487 kts | 340° |
| 2026-05-04 08:02 | 34.82339 | 117.80301 | 34109 ft | 487 kts | 340° |
| 2026-05-04 08:02 | 34.88794 | 117.77937 | 34112 ft | 487 kts | 340° |
| 2026-05-04 08:03 | 34.95260 | 117.75401 | 34124 ft | 485 kts | 334° |
| 2026-05-04 08:03 | 35.01015 | 117.71270 | 34113 ft | 480 kts | 323° |
| 2026-05-04 08:04 | 35.06547 | 117.66634 | 34107 ft | 481 kts | 323° |
| 2026-05-04 08:04 | 35.12067 | 117.61994 | 34113 ft | 481 kts | 323° |
| 2026-05-04 08:05 | 35.17535 | 117.57378 | 34114 ft | 480 kts | 323° |
| 2026-05-04 08:05 | 35.23036 | 117.52721 | 34111 ft | 480 kts | 323° |
| 2026-05-04 08:06 | 35.28523 | 117.48069 | 34109 ft | 480 kts | 323° |
| 2026-05-04 08:06 | 35.33991 | 117.43421 | 34099 ft | 479 kts | 323° |
| 2026-05-04 08:08 | 35.55865 | 117.24745 | 34100 ft | 479 kts | 323° |
| 2026-05-04 08:10 | 35.78267 | 117.07478 | 34073 ft | 482 kts | 342° |
| 2026-05-04 08:11 | 35.81560 | 117.06604 | 34076 ft | 484 kts | 348° |
| 2026-05-04 08:11 | 35.91550 | 117.04682 | 34073 ft | 483 kts | 348° |
| 2026-05-04 08:12 | 35.98186 | 117.03414 | 34064 ft | 483 kts | 348° |
| 2026-05-04 08:12 | 36.04846 | 117.02139 | 34056 ft | 483 kts | 348° |
| 2026-05-04 08:13 | 36.11446 | 117.00874 | 34064 ft | 482 kts | 348° |
| 2026-05-04 08:13 | 36.18108 | 116.99594 | 34068 ft | 483 kts | 348° |
| 2026-05-04 08:14 | 36.24727 | 116.98321 | 34069 ft | 481 kts | 348° |
| 2026-05-04 08:16 | 36.51225 | 116.93201 | 34059 ft | 482 kts | 348° |
| 2026-05-04 08:16 | 36.57834 | 116.91918 | 34045 ft | 481 kts | 348° |
| 2026-05-04 08:17 | 36.64444 | 116.90633 | 34038 ft | 481 kts | 348° |
| 2026-05-04 08:17 | 36.71084 | 116.89341 | 34032 ft | 480 kts | 348° |
| 2026-05-04 08:19 | 36.93774 | 116.84911 | 34016 ft | 449 kts | 348° |
| 2026-05-04 08:19 | 36.96836 | 116.84309 | 34011 ft | 451 kts | 348° |
| 2026-05-04 08:20 | 37.03075 | 116.83083 | 34005 ft | 451 kts | 348° |
| 2026-05-04 08:20 | 37.09264 | 116.81864 | 34008 ft | 452 kts | 348° |
| 2026-05-04 08:21 | 37.15447 | 116.80645 | 34014 ft | 451 kts | 348° |
| 2026-05-04 08:21 | 37.21641 | 116.79352 | 34010 ft | 449 kts | 344° |
| 2026-05-04 08:22 | 37.27640 | 116.77175 | 34004 ft | 448 kts | 341° |
| 2026-05-04 08:24 | 37.48453 | 116.69293 | 33935 ft | 432 kts | 341° |
| 2026-05-04 08:24 | 37.51324 | 116.68202 | 33611 ft | 438 kts | 341° |
| 2026-05-04 08:24 | 37.54234 | 116.67096 | 33231 ft | 439 kts | 341° |
| 2026-05-04 08:24 | 37.57142 | 116.65990 | 32852 ft | 434 kts | 342° |
| 2026-05-04 08:25 | 37.60009 | 116.64899 | 32477 ft | 430 kts | 341° |
| 2026-05-04 08:25 | 37.62873 | 116.63809 | 32103 ft | 430 kts | 342° |
| 2026-05-04 08:25 | 37.65767 | 116.62705 | 31722 ft | 435 kts | 342° |
| 2026-05-04 08:25 | 37.68642 | 116.61608 | 31345 ft | 435 kts | 342° |
| 2026-05-04 08:26 | 37.71551 | 116.60498 | 30958 ft | 434 kts | 342° |
| 2026-05-04 08:27 | 37.91892 | 116.52706 | 28236 ft | 438 kts | 342° |
| 2026-05-04 08:28 | 37.94794 | 116.51569 | 27838 ft | 434 kts | 340° |
| 2026-05-04 08:28 | 37.97549 | 116.50070 | 27450 ft | 431 kts | 332° |
| 2026-05-04 08:28 | 38.00108 | 116.48093 | 27059 ft | 430 kts | 326° |
| 2026-05-04 08:28 | 38.02520 | 116.45910 | 26671 ft | 428 kts | 325° |
| 2026-05-04 08:29 | 38.04935 | 116.43700 | 26278 ft | 426 kts | 325° |
| 2026-05-04 08:29 | 38.07318 | 116.41518 | 25892 ft | 424 kts | 325° |
| 2026-05-04 08:29 | 38.09693 | 116.39339 | 25501 ft | 422 kts | 325° |
| 2026-05-04 08:31 | 38.26638 | 116.26715 | 21880 ft | 393 kts | 350° |
| 2026-05-04 08:33 | 38.44923 | 116.30942 | 18129 ft | 381 kts | 13° |
| 2026-05-04 08:33 | 38.47474 | 116.31822 | 17491 ft | 381 kts | 13° |
| 2026-05-04 08:35 | 38.65784 | 116.37452 | 15960 ft | 387 kts | 9° |
| 2026-05-04 08:35 | 38.68424 | 116.38134 | 15581 ft | 382 kts | 9° |
| 2026-05-04 08:35 | 38.71015 | 116.38805 | 15206 ft | 380 kts | 9° |
| 2026-05-04 08:35 | 38.73596 | 116.39474 | 14830 ft | 377 kts | 9° |
| 2026-05-04 08:37 | 38.88235 | 116.43278 | 12597 ft | 338 kts | 8° |
| 2026-05-04 08:37 | 38.90513 | 116.43872 | 12228 ft | 333 kts | 8° |
| 2026-05-04 08:37 | 38.92778 | 116.44463 | 11856 ft | 328 kts | 8° |
| 2026-05-04 08:38 | 38.94967 | 116.45034 | 11662 ft | 318 kts | 8° |
| 2026-05-04 08:38 | 38.97128 | 116.45599 | 11652 ft | 314 kts | 8° |
| 2026-05-04 08:38 | 38.99263 | 116.46155 | 11646 ft | 314 kts | 8° |
| 2026-05-04 08:40 | 39.13785 | 116.49951 | 11642 ft | 303 kts | 8° |
| 2026-05-04 08:40 | 39.15858 | 116.50494 | 11643 ft | 304 kts | 8° |
| 2026-05-04 08:40 | 39.17929 | 116.51036 | 11639 ft | 304 kts | 8° |
| 2026-05-04 08:41 | 39.20003 | 116.51580 | 11639 ft | 304 kts | 8° |
| 2026-05-04 08:41 | 39.22081 | 116.52125 | 11637 ft | 303 kts | 8° |
| 2026-05-04 08:41 | 39.24130 | 116.52663 | 11640 ft | 304 kts | 8° |
| 2026-05-04 08:41 | 39.26219 | 116.53211 | 11641 ft | 304 kts | 8° |
| 2026-05-04 08:42 | 39.28297 | 116.53758 | 11641 ft | 304 kts | 8° |
| 2026-05-04 08:42 | 39.30344 | 116.54296 | 11644 ft | 303 kts | 8° |
| 2026-05-04 08:42 | 39.32432 | 116.54845 | 11644 ft | 304 kts | 8° |
| 2026-05-04 08:42 | 39.34499 | 116.55389 | 11642 ft | 304 kts | 8° |
| 2026-05-04 08:43 | 39.36581 | 116.55938 | 11652 ft | 305 kts | 8° |
| 2026-05-04 08:43 | 39.38650 | 116.56484 | 11650 ft | 305 kts | 8° |
| 2026-05-04 08:43 | 39.40732 | 116.57033 | 11646 ft | 305 kts | 8° |
| 2026-05-04 08:43 | 39.42833 | 116.57587 | 11645 ft | 305 kts | 8° |
| 2026-05-04 08:44 | 39.44894 | 116.58131 | 11643 ft | 305 kts | 8° |
| 2026-05-04 08:44 | 39.46964 | 116.58678 | 11648 ft | 305 kts | 8° |
| 2026-05-04 08:46 | 39.61536 | 116.62538 | 11634 ft | 306 kts | 8° |
| 2026-05-04 08:46 | 39.63633 | 116.63094 | 11388 ft | 309 kts | 8° |
| 2026-05-04 08:46 | 39.65736 | 116.63654 | 11022 ft | 307 kts | 8° |
| 2026-05-04 08:46 | 39.67804 | 116.64204 | 10658 ft | 304 kts | 7° |
| 2026-05-04 08:47 | 39.69883 | 116.64758 | 10288 ft | 302 kts | 7° |
| 2026-05-04 08:47 | 39.71906 | 116.65297 | 9926 ft | 300 kts | 8° |
| 2026-05-04 08:47 | 39.73953 | 116.65843 | 9545 ft | 298 kts | 8° |
| 2026-05-04 08:47 | 39.75964 | 116.66379 | 9185 ft | 296 kts | 8° |
| 2026-05-04 08:48 | 39.77992 | 116.66921 | 8812 ft | 294 kts | 8° |
| 2026-05-04 08:48 | 39.79969 | 116.67450 | 8667 ft | 284 kts | 8° |
| 2026-05-04 08:48 | 39.81870 | 116.67960 | 8653 ft | 277 kts | 8° |
| 2026-05-04 08:48 | 39.83764 | 116.68465 | 8648 ft | 278 kts | 8° |
| 2026-05-04 08:49 | 39.85661 | 116.68972 | 8648 ft | 278 kts | 8° |
| 2026-05-04 08:50 | 39.97187 | 116.72056 | 6810 ft | 283 kts | 9° |
| 2026-05-04 08:50 | 39.99116 | 116.72573 | 6450 ft | 284 kts | 9° |
| 2026-05-04 08:51 | 40.01035 | 116.73088 | 6095 ft | 284 kts | 9° |
| 2026-05-04 08:51 | 40.02972 | 116.73601 | 5870 ft | 278 kts | 7° |
| 2026-05-04 08:51 | 40.04848 | 116.73639 | 5837 ft | 261 kts | 352° |
| 2026-05-04 08:51 | 40.06641 | 116.73393 | 5609 ft | 258 kts | 351° |
| 2026-05-04 08:52 | 40.08421 | 116.73122 | 5371 ft | 255 kts | 351° |
| 2026-05-04 08:52 | 40.10183 | 116.72850 | 5153 ft | 252 kts | 351° |
| 2026-05-04 08:52 | 40.11909 | 116.72583 | 4935 ft | 248 kts | 351° |
| 2026-05-04 08:52 | 40.13609 | 116.72321 | 4719 ft | 245 kts | 351° |
| 2026-05-04 08:53 | 40.15298 | 116.72059 | 4506 ft | 241 kts | 351° |
| 2026-05-04 08:54 | 40.25771 | 116.69754 | 3318 ft | 196 kts | 306° |
| 2026-05-04 08:55 | 40.26291 | 116.68214 | 3127 ft | 179 kts | 269° |
| 2026-05-04 08:55 | 40.26263 | 116.66640 | 2962 ft | 169 kts | 263° |
| 2026-05-04 08:55 | 40.26200 | 116.65139 | 2796 ft | 162 kts | 262° |
| 2026-05-04 08:55 | 40.26134 | 116.63702 | 2620 ft | 154 kts | 258° |
| 2026-05-04 08:57 | 40.20061 | 116.59359 | 1798 ft | 164 kts | 202° |
| 2026-05-04 09:01 | 40.07611 | 116.59691 | 130 ft | 34 kts | 173° |
| 2026-05-04 09:01 | 40.07390 | 116.59726 | 130 ft | 29 kts | 172° |
| 2026-05-04 09:01 | 40.07236 | 116.59750 | 130 ft | 14 kts | 174° |
| 2026-05-04 09:01 | 40.07131 | 116.59768 | 130 ft | 16 kts | 171° |
| 2026-05-04 09:02 | 40.07017 | 116.59808 | 130 ft | 17 kts | 160° |
| 2026-05-04 09:02 | 40.06907 | 116.59892 | 129 ft | 18 kts | 144° |
| 2026-05-04 09:02 | 40.06811 | 116.59982 | 129 ft | 9 kts | 143° |
| 2026-05-04 09:02 | 40.06768 | 116.60038 | 129 ft | 8 kts | 109° |
| 2026-05-04 09:03 | 40.06766 | 116.60110 | 129 ft | 8 kts | 85° |
| 2026-05-04 09:03 | 40.06773 | 116.60193 | 129 ft | 10 kts | 84° |
| 2026-05-04 09:03 | 40.06782 | 116.60292 | 129 ft | 11 kts | 83° |
| 2026-05-04 09:03 | 40.06789 | 116.60397 | 129 ft | 10 kts | 105° |
| 2026-05-04 09:04 | 40.06721 | 116.60446 | 129 ft | 13 kts | 170° |
| 2026-05-04 09:04 | 40.06629 | 116.60461 | 129 ft | 11 kts | 173° |
| 2026-05-04 09:04 | 40.06556 | 116.60473 | 129 ft | 10 kts | 173° |
| 2026-05-04 09:04 | 40.06488 | 116.60484 | 129 ft | 9 kts | 173° |
| 2026-05-04 09:05 | 40.06440 | 116.60491 | 129 ft | 0 kts | 173° |
| 2026-05-04 09:05 | 40.06427 | 116.60493 | 129 ft | 4 kts | 173° |
| 2026-05-04 09:05 | 40.06402 | 116.60515 | 129 ft | 5 kts | 110° |
| 2026-05-04 09:05 | 40.06403 | 116.60551 | 129 ft | 3 kts | 81° |
| 2026-05-04 09:06 | 40.06406 | 116.60583 | 129 ft | 3 kts | 83° |
| 2026-05-04 09:07 | 40.06409 | 116.60619 | 129 ft | 0 kts | 83° |